Time;durP1;ratioP1;P1;durP2;ratioP2;P2;SDS_P1;SDS_P2;PMS_P1;PMS_P2;Temp;Humidity;BMP_temperature;BMP_pressure;BME280_temperature;BME280_humidity;BME280_pressure;Samples;Min_cycle;Max_cycle;Signal;HPM_P1;HPM_P2
2020/12/19 00:02:08;;;;;;;88.63;54.40;;;10.70;99.90;;;;;;5049674;28;20033;-71
2020/12/19 00:04:34;;;;;;;80.85;51.47;;;10.70;99.90;;;;;;5049703;28;20132;-71
2020/12/19 00:07:00;;;;;;;76.75;49.75;;;10.60;99.90;;;;;;5047659;28;20025;-70
2020/12/19 00:09:27;;;;;;;81.18;48.45;;;10.70;99.90;;;;;;5040444;28;20036;-71
2020/12/19 00:11:53;;;;;;;74.68;45.78;;;10.70;99.90;;;;;;5047831;28;20021;-71
2020/12/19 00:14:19;;;;;;;77.47;47.22;;;10.60;99.90;;;;;;5049222;28;20039;-70
2020/12/19 00:16:45;;;;;;;83.90;47.67;;;10.60;99.90;;;;;;5047959;28;20032;-71
2020/12/19 00:19:11;;;;;;;76.43;48.30;;;10.60;99.90;;;;;;5049187;28;20037;-71
2020/12/19 00:21:37;;;;;;;70.18;45.90;;;10.60;99.90;;;;;;5048741;28;20102;-71
2020/12/19 00:24:04;;;;;;;76.70;47.28;;;10.60;99.90;;;;;;5050817;28;20083;-71
2020/12/19 00:26:37;;;;;;;80.07;49.00;;;10.60;99.90;;;;;;5051136;28;20071;-71
2020/12/19 00:29:05;;;;;;;80.38;49.17;;;10.60;99.90;;;;;;5050249;28;20017;-71
2020/12/19 00:31:31;;;;;;;81.68;50.45;;;10.60;99.90;;;;;;5040683;28;20477;-71
2020/12/19 00:33:56;;;;;;;89.32;52.60;;;10.60;99.90;;;;;;5049854;28;20056;-72
2020/12/19 00:36:22;;;;;;;83.00;51.40;;;10.50;99.90;;;;;;5062172;28;20048;-71
2020/12/19 00:38:48;;;;;;;83.13;51.78;;;10.50;99.90;;;;;;5058467;28;20354;-71
2020/12/19 00:41:19;;;;;;;82.78;53.15;;;10.50;99.90;;;;;;5071110;28;20150;-71
2020/12/19 00:43:44;;;;;;;86.45;53.60;;;10.50;99.90;;;;;;5069208;28;20082;-71
2020/12/19 00:46:12;;;;;;;83.97;54.25;;;10.50;99.90;;;;;;5070380;28;20500;-71
2020/12/19 00:48:38;;;;;;;86.68;54.97;;;10.50;99.90;;;;;;5074311;28;20036;-71
2020/12/19 00:51:04;;;;;;;79.95;53.50;;;10.50;99.90;;;;;;5071958;28;20071;-72
2020/12/19 00:53:29;;;;;;;82.00;52.55;;;10.50;99.90;;;;;;5060091;28;20064;-71
2020/12/19 00:55:55;;;;;;;83.43;53.25;;;10.60;99.90;;;;;;5071843;28;20025;-71
2020/12/19 00:58:21;;;;;;;83.72;53.95;;;10.60;99.90;;;;;;5072083;28;20024;-72
2020/12/19 01:00:46;;;;;;;93.65;56.10;;;10.70;99.90;;;;;;5074478;28;20483;-72
2020/12/19 01:03:12;;;;;;;90.18;55.97;;;10.70;99.90;;;;;;5068500;28;20539;-71
2020/12/19 01:05:38;;;;;;;86.47;52.95;;;10.70;99.90;;;;;;5074163;28;20021;-71
2020/12/19 01:08:03;;;;;;;82.00;52.50;;;10.60;99.90;;;;;;5060843;28;20104;-71
2020/12/19 01:10:29;;;;;;;93.05;55.20;;;10.70;99.90;;;;;;5074115;28;20078;-71
2020/12/19 01:12:55;;;;;;;86.82;55.55;;;10.70;99.90;;;;;;5059627;28;20024;-71
2020/12/19 01:15:20;;;;;;;88.60;55.38;;;10.70;99.90;;;;;;5071177;28;20102;-71
2020/12/19 01:17:46;;;;;;;99.38;58.08;;;10.70;99.90;;;;;;5065319;28;20079;-71
2020/12/19 01:20:11;;;;;;;94.25;55.78;;;10.70;99.90;;;;;;5074196;28;20128;-71
2020/12/19 01:22:37;;;;;;;88.15;55.47;;;10.70;99.90;;;;;;5068573;28;20102;-72
2020/12/19 01:25:03;;;;;;;97.32;59.50;;;10.70;99.90;;;;;;5060816;28;20025;-71
2020/12/19 01:27:28;;;;;;;103.63;59.85;;;10.70;99.90;;;;;;5052100;28;20025;-71
2020/12/19 01:29:54;;;;;;;95.38;58.00;;;10.70;99.90;;;;;;5053351;28;20469;-71
2020/12/19 01:32:20;;;;;;;96.72;58.78;;;10.70;99.90;;;;;;5052639;28;20496;-71
2020/12/19 01:34:45;;;;;;;93.45;60.65;;;10.70;99.90;;;;;;5048955;28;20037;-72
2020/12/19 01:37:11;;;;;;;91.47;58.78;;;10.80;99.90;;;;;;5066469;28;20022;-71
2020/12/19 01:39:37;;;;;;;96.18;58.00;;;10.80;99.90;;;;;;5063300;28;20036;-71
2020/12/19 01:42:02;;;;;;;93.85;59.05;;;10.80;99.90;;;;;;5068039;28;20025;-71
2020/12/19 01:44:28;;;;;;;87.55;58.10;;;10.80;99.90;;;;;;5047610;28;20033;-71
2020/12/19 01:46:57;;;;;;;89.82;57.45;;;10.80;99.90;;;;;;5041335;28;20033;-71
2020/12/19 01:49:28;;;;;;;96.13;57.90;;;10.80;99.90;;;;;;5053144;28;20021;-71
2020/12/19 01:51:57;;;;;;;96.53;57.35;;;10.80;99.90;;;;;;5052666;28;20021;-71
2020/12/19 01:54:24;;;;;;;92.93;54.45;;;10.80;99.90;;;;;;5053336;28;20071;-71
2020/12/19 01:56:52;;;;;;;94.00;55.83;;;10.80;99.90;;;;;;5051974;28;20074;-71
2020/12/19 01:59:19;;;;;;;97.13;59.80;;;10.90;99.90;;;;;;5053473;28;20029;-71
2020/12/19 02:01:50;;;;;;;93.18;58.65;;;10.80;99.90;;;;;;5053208;28;20154;-71
2020/12/19 02:04:20;;;;;;;98.10;58.90;;;10.80;99.90;;;;;;5052910;28;20551;-71
2020/12/19 02:06:47;;;;;;;96.07;56.30;;;10.80;99.90;;;;;;5051039;28;20057;-71
2020/12/19 02:09:14;;;;;;;95.55;55.60;;;10.80;99.90;;;;;;5039815;28;20064;-71
2020/12/19 02:11:42;;;;;;;89.03;57.42;;;10.80;99.90;;;;;;5052060;28;20110;-71
2020/12/19 02:14:08;;;;;;;97.38;56.97;;;10.80;99.90;;;;;;5050333;28;20024;-71
2020/12/19 02:16:34;;;;;;;86.18;55.20;;;10.80;99.90;;;;;;5047576;28;20457;-71
2020/12/19 02:19:00;;;;;;;90.97;57.38;;;10.80;99.90;;;;;;5038508;28;20034;-70
2020/12/19 02:21:26;;;;;;;82.32;53.53;;;10.80;99.90;;;;;;5052851;28;20028;-72
2020/12/19 02:23:52;;;;;;;94.45;58.53;;;10.80;99.90;;;;;;5052394;28;20036;-71
2020/12/19 02:26:17;;;;;;;83.80;55.97;;;10.80;99.90;;;;;;5052363;28;20017;-71
2020/12/19 02:28:43;;;;;;;101.35;60.80;;;10.80;99.90;;;;;;5041158;28;20481;-72
2020/12/19 02:31:08;;;;;;;108.63;64.22;;;10.70;99.90;;;;;;5052435;28;20469;-72
2020/12/19 02:33:34;;;;;;;101.72;65.10;;;10.80;99.90;;;;;;5052517;28;20492;-71
2020/12/19 02:36:00;;;;;;;96.03;63.55;;;10.80;99.90;;;;;;5052412;28;20025;-72
2020/12/19 02:38:26;;;;;;;99.25;64.07;;;10.80;99.90;;;;;;5050435;28;20100;-71
2020/12/19 02:40:51;;;;;;;91.68;60.13;;;10.80;99.90;;;;;;5051977;28;20376;-71
2020/12/19 02:43:17;;;;;;;103.95;65.75;;;10.80;99.90;;;;;;5051304;28;20108;-72
2020/12/19 02:45:43;;;;;;;92.22;47.95;;;10.70;99.90;;;;;;5049051;28;20034;-71
2020/12/19 02:48:08;;;;;;;77.05;45.63;;;10.70;99.90;;;;;;5050251;28;20060;-72
2020/12/19 02:50:34;;;;;;;69.32;45.30;;;10.60;99.90;;;;;;5051834;28;20017;-71
2020/12/19 02:52:59;;;;;;;62.20;38.53;;;10.60;99.90;;;;;;5051481;28;20017;-72
2020/12/19 02:55:25;;;;;;;55.35;37.85;;;10.70;99.90;;;;;;5051947;28;20541;-71
2020/12/19 02:57:51;;;;;;;61.58;39.08;;;10.60;99.90;;;;;;5050700;28;20524;-72
2020/12/19 03:00:16;;;;;;;60.25;39.63;;;10.60;99.90;;;;;;5051902;28;20044;-71
2020/12/19 03:02:42;;;;;;;75.78;49.00;;;10.60;99.90;;;;;;5051607;28;20389;-71
2020/12/19 03:05:08;;;;;;;82.30;53.05;;;10.60;99.90;;;;;;5041118;28;20028;-71
2020/12/19 03:07:33;;;;;;;89.15;54.50;;;10.60;99.90;;;;;;5050661;28;20021;-70
2020/12/19 03:09:59;;;;;;;96.05;54.97;;;10.60;99.90;;;;;;5049611;28;20539;-71
2020/12/19 03:12:25;;;;;;;97.13;55.63;;;10.60;99.90;;;;;;5050113;28;20029;-71
2020/12/19 03:14:50;;;;;;;94.45;55.97;;;10.60;99.90;;;;;;5051455;28;20021;-71
2020/12/19 03:17:16;;;;;;;90.10;56.17;;;10.60;99.90;;;;;;5039032;28;20082;-71
2020/12/19 03:19:41;;;;;;;95.60;60.05;;;10.60;99.90;;;;;;5049789;28;20025;-71
2020/12/19 03:22:07;;;;;;;94.97;60.90;;;10.60;99.90;;;;;;5051009;28;20053;-70
2020/12/19 03:24:33;;;;;;;92.43;59.30;;;10.60;99.90;;;;;;5051436;28;20045;-71
2020/12/19 03:26:58;;;;;;;93.13;56.63;;;10.50;99.90;;;;;;5051614;28;20060;-71
2020/12/19 03:29:24;;;;;;;89.00;55.13;;;10.60;99.90;;;;;;5051150;28;20647;-71
2020/12/19 03:31:49;;;;;;;92.32;56.58;;;10.50;99.90;;;;;;5050341;28;20421;-71
2020/12/19 03:34:15;;;;;;;92.57;58.75;;;10.50;99.90;;;;;;5048341;28;20086;-71
2020/12/19 03:36:41;;;;;;;98.75;56.95;;;10.60;99.90;;;;;;5050448;28;20048;-71
2020/12/19 03:39:06;;;;;;;98.18;60.03;;;10.60;99.90;;;;;;5050807;28;20036;-71
2020/12/19 03:41:32;;;;;;;108.00;62.33;;;10.60;99.90;;;;;;5050339;28;20157;-71
2020/12/19 03:43:58;;;;;;;97.22;58.72;;;10.60;99.90;;;;;;5050857;28;20368;-71
2020/12/19 03:46:23;;;;;;;96.68;58.55;;;10.60;99.90;;;;;;5043488;28;20021;-70
2020/12/19 03:48:49;;;;;;;91.28;58.28;;;10.60;99.90;;;;;;5050094;28;20035;-71
2020/12/19 03:51:14;;;;;;;91.05;58.58;;;10.60;99.90;;;;;;5051314;28;20040;-71
2020/12/19 03:53:40;;;;;;;95.53;58.42;;;10.60;99.90;;;;;;5049564;28;20021;-71
2020/12/19 03:56:07;;;;;;;91.97;55.53;;;10.60;99.90;;;;;;5051530;28;20112;-70
2020/12/19 03:58:33;;;;;;;94.80;57.78;;;10.70;99.90;;;;;;5050766;28;20028;-71
2020/12/19 04:00:58;;;;;;;94.80;57.08;;;10.70;99.90;;;;;;5050498;28;20033;-71
2020/12/19 04:03:24;;;;;;;106.47;58.58;;;10.70;99.90;;;;;;5050860;28;20043;-71
2020/12/19 04:05:50;;;;;;;102.28;59.85;;;10.70;99.90;;;;;;5051618;28;20115;-71
2020/12/19 04:08:15;;;;;;;97.32;60.35;;;10.70;99.90;;;;;;5049537;28;20056;-71
2020/12/19 04:10:41;;;;;;;96.35;58.45;;;10.80;99.90;;;;;;5051203;28;20029;-71
2020/12/19 04:13:07;;;;;;;103.40;61.88;;;10.70;99.90;;;;;;5049412;28;20048;-71
2020/12/19 04:15:32;;;;;;;98.65;59.08;;;10.80;99.90;;;;;;5051113;28;20492;-71
2020/12/19 04:17:58;;;;;;;92.45;57.60;;;10.80;99.90;;;;;;5041123;28;20392;-71
2020/12/19 04:20:24;;;;;;;96.18;59.38;;;10.80;99.90;;;;;;5052450;28;20458;-71
2020/12/19 04:22:49;;;;;;;90.05;56.72;;;10.80;99.90;;;;;;5051069;28;20052;-71
2020/12/19 04:25:15;;;;;;;95.22;60.42;;;10.80;99.90;;;;;;5054906;28;20021;-71
2020/12/19 04:27:41;;;;;;;93.90;56.90;;;10.70;99.90;;;;;;5054985;28;20138;-71
2020/12/19 04:30:09;;;;;;;91.65;57.13;;;10.80;99.90;;;;;;5055088;28;20032;-71
2020/12/19 04:32:35;;;;;;;92.15;57.78;;;10.80;99.90;;;;;;5054343;28;20021;-70
2020/12/19 04:35:01;;;;;;;103.25;57.95;;;10.80;99.90;;;;;;5054670;28;20056;-71
2020/12/19 04:37:27;;;;;;;95.32;59.15;;;10.80;99.90;;;;;;5052808;28;20485;-71
2020/12/19 04:39:52;;;;;;;94.63;56.75;;;10.80;99.90;;;;;;5054364;28;20428;-71
2020/12/19 04:42:20;;;;;;;93.65;56.83;;;10.80;99.90;;;;;;5054258;28;20465;-71
2020/12/19 04:44:47;;;;;;;92.35;55.20;;;10.80;99.90;;;;;;5054565;28;20086;-71
2020/12/19 04:47:13;;;;;;;80.30;52.83;;;10.80;99.90;;;;;;5051787;28;20412;-70
2020/12/19 04:49:41;;;;;;;78.32;47.63;;;10.80;99.90;;;;;;5054409;28;20029;-71
2020/12/19 04:52:07;;;;;;;83.90;49.90;;;10.80;99.90;;;;;;5052771;28;20036;-71
2020/12/19 04:54:33;;;;;;;75.45;46.53;;;10.70;99.90;;;;;;5054253;28;20052;-71
2020/12/19 04:57:00;;;;;;;84.22;49.08;;;10.70;99.90;;;;;;5052422;28;20378;-71
2020/12/19 04:59:26;;;;;;;84.57;49.58;;;10.70;99.90;;;;;;5054322;28;20052;-71
2020/12/19 05:01:52;;;;;;;83.10;51.38;;;10.70;99.90;;;;;;5053307;28;20473;-73
2020/12/19 05:04:18;;;;;;;79.55;51.78;;;10.70;99.90;;;;;;5052998;28;20037;-71
2020/12/19 05:06:46;;;;;;;86.25;54.38;;;10.70;99.90;;;;;;5053761;28;20032;-71
2020/12/19 05:09:11;;;;;;;87.20;52.83;;;10.70;99.90;;;;;;5052589;28;20029;-71
2020/12/19 05:11:37;;;;;;;90.50;54.30;;;10.80;99.90;;;;;;5053908;28;20021;-71
2020/12/19 05:14:07;;;;;;;87.85;53.53;;;10.80;99.90;;;;;;5053992;28;20115;-71
2020/12/19 05:16:33;;;;;;;91.85;52.03;;;10.80;99.90;;;;;;5046021;28;20026;-71
2020/12/19 05:19:07;;;;;;;82.72;51.72;;;10.80;99.90;;;;;;5053269;28;20060;-71
2020/12/19 05:21:43;;;;;;;88.90;54.22;;;10.90;99.90;;;;;;5052214;28;20029;-72
2020/12/19 05:24:11;;;;;;;85.07;52.83;;;10.90;99.90;;;;;;5041092;28;20182;-72
2020/12/19 05:26:38;;;;;;;88.50;54.20;;;10.90;99.90;;;;;;5053390;28;20130;-71
2020/12/19 05:29:04;;;;;;;89.97;52.13;;;10.90;99.90;;;;;;5044856;28;20044;-72
2020/12/19 05:31:33;;;;;;;100.38;52.55;;;10.90;99.90;;;;;;5052989;28;20020;-72
2020/12/19 05:33:59;;;;;;;86.65;53.65;;;10.90;99.90;;;;;;5053736;28;20396;-71
2020/12/19 05:36:28;;;;;;;86.57;51.17;;;10.90;99.90;;;;;;5053379;28;20092;-72
2020/12/19 05:39:01;;;;;;;89.57;53.22;;;10.90;99.90;;;;;;5052194;28;20496;-72
2020/12/19 05:41:28;;;;;;;90.00;53.03;;;10.90;99.90;;;;;;5052986;28;20539;-72
2020/12/19 05:43:54;;;;;;;102.25;53.45;;;10.90;99.90;;;;;;5044204;28;20043;-72
2020/12/19 05:46:31;;;;;;;83.50;52.25;;;11.00;99.90;;;;;;5048530;28;20018;-72
2020/12/19 05:48:58;;;;;;;106.97;54.40;;;10.90;99.90;;;;;;5053694;28;20063;-72
2020/12/19 05:51:29;;;;;;;92.60;54.95;;;11.00;99.90;;;;;;5053030;28;20070;-72
2020/12/19 05:54:01;;;;;;;89.75;53.40;;;10.90;99.90;;;;;;5050467;28;20496;-72
2020/12/19 05:56:27;;;;;;;102.15;60.63;;;10.90;99.90;;;;;;5052946;28;20465;-72
2020/12/19 05:58:54;;;;;;;99.68;60.67;;;10.90;99.90;;;;;;5052750;28;20428;-72
2020/12/19 06:01:20;;;;;;;87.20;56.92;;;10.90;99.90;;;;;;5052995;28;20033;-72
2020/12/19 06:03:49;;;;;;;75.50;46.35;;;10.90;99.90;;;;;;5052966;28;20033;-71
2020/12/19 06:06:16;;;;;;;71.25;46.03;;;10.90;99.90;;;;;;5053207;28;20017;-72
2020/12/19 06:08:42;;;;;;;84.30;48.55;;;10.90;99.90;;;;;;5046283;28;20095;-72
2020/12/19 06:11:15;;;;;;;83.40;49.70;;;11.00;99.90;;;;;;5039957;28;20056;-72
2020/12/19 06:13:47;;;;;;;72.43;44.78;;;11.00;99.90;;;;;;5050375;28;20425;-72
2020/12/19 06:16:16;;;;;;;70.60;44.20;;;11.00;99.90;;;;;;5052920;28;20049;-72
2020/12/19 06:19:02;;;;;;;73.32;44.13;;;11.00;99.90;;;;;;5045338;28;20021;-72
2020/12/19 06:21:28;;;;;;;74.45;46.17;;;11.00;99.90;;;;;;5051446;28;20485;-71
2020/12/19 06:23:54;;;;;;;73.07;45.65;;;11.00;99.90;;;;;;5052353;28;20163;-72
2020/12/19 06:26:35;;;;;;;69.65;45.05;;;11.00;99.90;;;;;;5050508;28;20025;-71
2020/12/19 06:29:01;;;;;;;76.17;47.17;;;11.10;99.90;;;;;;5052914;28;20064;-71
2020/12/19 06:31:27;;;;;;;76.20;45.80;;;11.10;99.90;;;;;;5051257;28;20363;-71
2020/12/19 06:33:54;;;;;;;74.60;46.92;;;11.10;99.90;;;;;;5052320;28;20028;-72
2020/12/19 06:36:29;;;;;;;70.78;46.10;;;11.10;99.90;;;;;;5052143;28;20048;-72
2020/12/19 06:38:55;;;;;;;68.93;45.22;;;11.10;99.90;;;;;;5052739;28;20021;-72
2020/12/19 06:41:40;;;;;;;80.55;47.83;;;11.10;99.90;;;;;;5052374;28;20108;-72
2020/12/19 06:44:27;;;;;;;73.95;46.78;;;11.10;99.90;;;;;;5039636;28;20025;-72
2020/12/19 06:46:55;;;;;;;83.80;51.97;;;11.10;99.90;;;;;;5049868;28;20049;-72
2020/12/19 06:49:24;;;;;;;99.60;60.63;;;11.10;99.90;;;;;;5039076;28;20035;-71
2020/12/19 06:52:09;;;;;;;92.47;55.72;;;11.10;99.90;;;;;;5052000;28;20017;-72
2020/12/19 06:54:42;;;;;;;102.65;63.97;;;11.10;99.90;;;;;;5051701;28;20064;-72
2020/12/19 06:57:28;;;;;;;115.18;64.85;;;11.10;99.90;;;;;;5051303;28;20029;-72
2020/12/19 06:59:57;;;;;;;90.00;52.58;;;11.10;99.90;;;;;;5052079;28;20029;-72
2020/12/19 07:02:24;;;;;;;75.22;45.65;;;11.10;99.90;;;;;;5051759;28;22040;-72
2020/12/19 07:04:51;;;;;;;68.13;43.92;;;11.10;99.90;;;;;;5050154;28;20097;-72
2020/12/19 07:07:27;;;;;;;79.00;45.22;;;11.10;99.90;;;;;;5051420;28;20067;-72
2020/12/19 07:09:57;;;;;;;88.63;51.13;;;11.10;99.90;;;;;;5051908;28;20056;-72
2020/12/19 07:12:34;;;;;;;88.40;53.33;;;11.10;99.90;;;;;;5044021;28;20465;-71
2020/12/19 07:15:03;;;;;;;84.35;52.83;;;11.10;99.90;;;;;;5048858;28;20032;-72
2020/12/19 07:17:28;;;;;;;95.43;53.92;;;11.10;99.90;;;;;;5049969;28;20044;-72
2020/12/19 07:20:01;;;;;;;95.93;56.10;;;11.10;99.90;;;;;;5051521;28;20060;-72
2020/12/19 07:22:27;;;;;;;95.72;54.30;;;11.10;99.90;;;;;;5051089;28;20444;-71
2020/12/19 07:24:54;;;;;;;89.72;52.50;;;11.10;99.90;;;;;;5051709;28;20021;-72
2020/12/19 07:27:21;;;;;;;79.90;49.33;;;11.10;99.90;;;;;;5051449;28;20487;-72
2020/12/19 07:29:46;;;;;;;80.03;49.85;;;11.10;99.90;;;;;;5046387;28;20029;-72
2020/12/19 07:32:12;;;;;;;73.50;46.20;;;11.10;99.90;;;;;;5048693;28;20047;-72
2020/12/19 07:34:38;;;;;;;75.28;46.33;;;11.10;99.90;;;;;;5050638;28;20104;-71
2020/12/19 07:37:06;;;;;;;70.30;42.72;;;11.10;99.90;;;;;;5051238;28;20488;-72
2020/12/19 07:39:31;;;;;;;72.88;43.80;;;11.10;99.90;;;;;;5051048;28;20029;-72
2020/12/19 07:42:09;;;;;;;80.72;48.15;;;11.10;99.90;;;;;;5050679;28;20084;-72
2020/12/19 07:44:36;;;;;;;75.60;47.40;;;11.10;99.90;;;;;;5049753;28;20431;-72
2020/12/19 07:47:08;;;;;;;75.18;47.95;;;11.10;99.90;;;;;;5048360;28;20032;-71
2020/12/19 07:49:41;;;;;;;80.03;48.38;;;11.10;99.90;;;;;;5044675;28;20025;-71
2020/12/19 07:52:10;;;;;;;66.07;42.55;;;11.20;99.90;;;;;;5055357;28;20067;-72
2020/12/19 07:54:37;;;;;;;66.93;41.00;;;11.20;99.90;;;;;;5051345;28;20104;-71
2020/12/19 07:57:03;;;;;;;67.72;40.53;;;11.20;99.90;;;;;;5055596;28;20107;-72
2020/12/19 07:59:29;;;;;;;77.18;40.90;;;11.10;99.90;;;;;;5055501;28;20037;-71
2020/12/19 08:01:56;;;;;;;65.78;42.05;;;11.20;99.90;;;;;;5055272;28;20025;-70
2020/12/19 08:04:22;;;;;;;67.22;39.33;;;11.10;99.90;;;;;;5055243;28;20379;-71
2020/12/19 08:06:48;;;;;;;61.92;39.30;;;11.20;99.90;;;;;;5055098;28;20017;-72
2020/12/19 08:09:19;;;;;;;57.78;37.92;;;11.20;99.90;;;;;;5053635;28;20070;-71
2020/12/19 08:11:46;;;;;;;59.58;37.83;;;11.20;99.90;;;;;;5054583;28;20062;-71
2020/12/19 08:14:14;;;;;;;55.65;37.63;;;11.20;99.90;;;;;;5055493;28;20419;-71
2020/12/19 08:16:41;;;;;;;65.93;38.35;;;11.20;99.90;;;;;;5054691;28;20489;-72
2020/12/19 08:19:08;;;;;;;64.15;39.13;;;11.20;99.90;;;;;;5055196;28;20033;-71
2020/12/19 08:21:36;;;;;;;65.40;40.03;;;11.20;99.90;;;;;;5054188;28;20493;-72
2020/12/19 08:24:02;;;;;;;59.22;38.92;;;11.20;99.90;;;;;;5058736;28;20033;-71
2020/12/19 08:26:27;;;;;;;61.45;39.50;;;11.20;99.90;;;;;;5072247;28;20562;-71
2020/12/19 08:29:07;;;;;;;69.78;39.78;;;11.20;99.90;;;;;;5070596;28;20024;-71
2020/12/19 08:31:35;;;;;;;72.43;40.67;;;11.20;99.90;;;;;;5072679;28;20021;-71
2020/12/19 08:34:04;;;;;;;62.97;39.50;;;11.30;99.90;;;;;;5067907;28;20043;-71
2020/12/19 08:36:31;;;;;;;75.97;40.47;;;11.30;99.90;;;;;;5062100;28;20032;-71
2020/12/19 08:39:14;;;;;;;75.70;41.30;;;11.30;99.90;;;;;;5060639;28;20039;-71
2020/12/19 08:41:39;;;;;;;74.63;43.55;;;11.30;99.90;;;;;;5067411;28;20020;-72
2020/12/19 08:44:05;;;;;;;73.35;43.80;;;11.30;99.90;;;;;;5065592;28;20033;-71
2020/12/19 08:46:31;;;;;;;69.63;44.20;;;11.30;99.90;;;;;;5070119;28;21458;-71
2020/12/19 08:49:03;;;;;;;74.03;45.50;;;11.40;99.90;;;;;;5069840;28;20029;-71
2020/12/19 08:51:29;;;;;;;71.32;44.67;;;11.40;99.90;;;;;;5058782;28;20023;-71
2020/12/19 08:54:10;;;;;;;84.68;49.30;;;11.40;99.90;;;;;;5064451;28;20025;-71
2020/12/19 08:56:36;;;;;;;80.93;49.88;;;11.50;99.90;;;;;;5065039;28;20016;-71
2020/12/19 08:59:02;;;;;;;75.57;49.53;;;11.50;99.90;;;;;;5068604;28;20043;-71
2020/12/19 09:01:31;;;;;;;83.03;51.05;;;11.50;99.90;;;;;;5060489;28;20036;-71
2020/12/19 09:04:09;;;;;;;85.53;50.80;;;11.50;99.90;;;;;;5062659;28;20557;-71
2020/12/19 09:06:53;;;;;;;80.28;50.92;;;11.50;99.90;;;;;;5062798;28;20402;-71
2020/12/19 09:09:29;;;;;;;84.53;52.28;;;11.60;99.90;;;;;;5044641;28;20104;-72
2020/12/19 09:12:10;;;;;;;82.68;52.35;;;11.60;99.90;;;;;;5061865;28;20047;-71
2020/12/19 09:14:36;;;;;;;90.05;55.83;;;11.60;99.90;;;;;;5052230;28;20021;-72
2020/12/19 09:17:02;;;;;;;87.60;54.42;;;11.60;99.90;;;;;;5053195;28;20040;-72
2020/12/19 09:19:28;;;;;;;88.50;56.70;;;11.60;99.90;;;;;;5053143;28;20508;-72
2020/12/19 09:21:58;;;;;;;88.10;54.63;;;11.60;99.90;;;;;;5066044;28;20048;-72
2020/12/19 09:24:24;;;;;;;85.40;55.53;;;11.60;99.90;;;;;;5063677;28;20043;-72
2020/12/19 09:26:50;;;;;;;89.32;57.53;;;11.60;99.90;;;;;;5059284;28;20033;-72
2020/12/19 09:29:16;;;;;;;94.15;58.72;;;11.60;99.90;;;;;;5062147;28;20032;-72
2020/12/19 09:31:42;;;;;;;102.45;59.40;;;11.70;99.90;;;;;;5070596;28;20048;-76
2020/12/19 09:34:08;;;;;;;96.43;58.22;;;11.70;99.90;;;;;;5055113;28;20056;-71
2020/12/19 09:36:35;;;;;;;94.10;59.30;;;11.70;99.90;;;;;;5051915;28;20025;-72
2020/12/19 09:39:01;;;;;;;89.00;56.70;;;11.80;99.90;;;;;;5057193;28;20075;-72
2020/12/19 09:41:26;;;;;;;98.40;56.85;;;11.80;99.90;;;;;;5057910;28;20025;-72
2020/12/19 09:43:52;;;;;;;90.80;59.85;;;11.80;99.90;;;;;;5050418;28;20041;-72
2020/12/19 09:46:18;;;;;;;91.85;58.45;;;11.90;99.90;;;;;;5059698;28;20021;-71
2020/12/19 09:48:44;;;;;;;97.45;58.33;;;11.90;99.90;;;;;;5065557;28;20033;-72
2020/12/19 09:51:10;;;;;;;91.05;57.75;;;11.90;99.90;;;;;;5072458;28;20050;-71
2020/12/19 09:53:36;;;;;;;96.10;59.05;;;11.90;99.90;;;;;;5051676;28;20098;-72
2020/12/19 09:56:02;;;;;;;92.10;59.65;;;12.00;99.90;;;;;;5052049;28;20492;-72
2020/12/19 09:58:28;;;;;;;96.60;60.30;;;11.90;99.90;;;;;;5051045;28;20032;-71
2020/12/19 10:00:53;;;;;;;97.75;59.45;;;11.90;99.90;;;;;;5053480;28;20032;-73
2020/12/19 10:03:19;;;;;;;94.03;61.35;;;12.00;99.90;;;;;;5053044;28;20078;-71
2020/12/19 10:05:45;;;;;;;105.47;62.33;;;12.00;99.90;;;;;;5051606;28;20040;-72
2020/12/19 10:08:11;;;;;;;106.20;61.85;;;12.00;99.90;;;;;;5051778;28;20477;-72
2020/12/19 10:10:36;;;;;;;100.88;62.20;;;12.00;99.90;;;;;;5051868;28;20017;-72
2020/12/19 10:13:02;;;;;;;97.40;63.80;;;12.00;99.90;;;;;;5052435;28;20025;-72
2020/12/19 10:15:28;;;;;;;102.50;62.92;;;12.10;99.90;;;;;;5051759;28;20496;-71
2020/12/19 10:17:54;;;;;;;103.07;64.30;;;12.10;99.90;;;;;;5051909;28;20071;-72
2020/12/19 10:20:20;;;;;;;109.70;65.18;;;12.10;99.90;;;;;;5052659;28;20029;-72
2020/12/19 10:22:48;;;;;;;102.45;63.65;;;12.10;99.90;;;;;;5052646;28;20094;-72
2020/12/19 10:25:14;;;;;;;107.82;65.28;;;12.20;99.90;;;;;;5051219;28;20370;-72
2020/12/19 10:27:40;;;;;;;112.18;66.53;;;12.20;99.90;;;;;;5051874;28;20087;-72
2020/12/19 10:30:06;;;;;;;105.43;63.47;;;12.20;99.90;;;;;;5052540;28;20100;-72
2020/12/19 10:32:31;;;;;;;112.57;67.40;;;12.30;99.90;;;;;;5050946;28;20413;-75
2020/12/19 10:34:57;;;;;;;104.75;63.80;;;12.20;99.90;;;;;;5051731;28;20017;-76
2020/12/19 10:37:23;;;;;;;102.22;63.97;;;12.30;99.90;;;;;;5052125;28;20097;-72
2020/12/19 10:39:49;;;;;;;100.63;63.40;;;12.30;99.90;;;;;;5052007;28;20477;-72
2020/12/19 10:42:14;;;;;;;96.22;63.55;;;12.30;99.90;;;;;;5052034;28;20389;-75
2020/12/19 10:44:41;;;;;;;108.47;66.63;;;12.30;99.90;;;;;;5040566;28;20052;-72
2020/12/19 10:47:06;;;;;;;106.40;65.25;;;12.30;99.90;;;;;;5051643;28;20017;-72
2020/12/19 10:49:32;;;;;;;111.13;65.22;;;12.30;99.90;;;;;;5051457;28;20025;-72
2020/12/19 10:52:02;;;;;;;113.32;66.38;;;12.30;99.90;;;;;;5051480;28;20551;-72
2020/12/19 10:54:28;;;;;;;122.85;71.10;;;12.30;99.90;;;;;;5050055;28;20025;-72
2020/12/19 10:56:54;;;;;;;111.70;67.07;;;12.30;99.90;;;;;;5059612;28;20036;-72
2020/12/19 10:59:20;;;;;;;123.18;68.93;;;12.30;99.90;;;;;;5069898;28;20025;-72
2020/12/19 11:01:46;;;;;;;118.15;70.60;;;12.30;99.90;;;;;;5065079;28;20020;-75
2020/12/19 11:04:12;;;;;;;112.28;69.45;;;12.30;99.90;;;;;;5066306;28;20055;-73
2020/12/19 11:06:38;;;;;;;116.40;70.00;;;12.30;99.90;;;;;;5065176;28;20032;-74
2020/12/19 11:09:04;;;;;;;112.20;70.00;;;12.40;99.90;;;;;;5066827;28;20021;-75
2020/12/19 11:11:29;;;;;;;116.95;70.60;;;12.30;99.90;;;;;;5066371;28;20012;-74
2020/12/19 11:13:56;;;;;;;119.82;71.20;;;12.30;99.90;;;;;;5053827;28;20047;-73
2020/12/19 11:16:26;;;;;;;106.72;65.40;;;12.40;99.90;;;;;;5050240;28;20569;-74
2020/12/19 11:18:53;;;;;;;106.97;67.55;;;12.40;99.90;;;;;;5057096;28;20032;-74
2020/12/19 11:21:19;;;;;;;110.47;69.38;;;12.40;99.90;;;;;;5051468;28;20473;-74
2020/12/19 11:23:46;;;;;;;107.15;65.80;;;12.40;99.90;;;;;;5063790;28;20040;-74
2020/12/19 11:26:12;;;;;;;105.75;67.43;;;12.40;99.90;;;;;;5068679;28;20572;-72
2020/12/19 11:28:38;;;;;;;109.25;66.55;;;12.30;99.90;;;;;;5069430;28;20376;-74
2020/12/19 11:31:07;;;;;;;117.57;67.78;;;12.40;99.90;;;;;;5070414;28;20067;-74
2020/12/19 11:33:33;;;;;;;109.35;69.68;;;12.40;99.90;;;;;;5068363;28;20025;-74
2020/12/19 11:36:00;;;;;;;117.57;68.85;;;12.40;99.90;;;;;;5063002;28;20074;-77
2020/12/19 11:38:26;;;;;;;108.13;66.75;;;12.30;99.90;;;;;;5061972;28;20035;-74
2020/12/19 11:40:51;;;;;;;127.93;71.90;;;12.30;99.90;;;;;;5048679;28;20064;-75
2020/12/19 11:43:17;;;;;;;126.10;67.28;;;12.30;99.90;;;;;;5050025;28;20379;-76
2020/12/19 11:45:43;;;;;;;122.22;73.40;;;12.30;99.90;;;;;;5054053;28;20333;-74
2020/12/19 11:48:08;;;;;;;130.77;73.45;;;12.30;99.90;;;;;;5052855;28;20033;-74
2020/12/19 11:50:34;;;;;;;134.38;77.43;;;12.30;99.90;;;;;;5050534;28;20049;-75
2020/12/19 11:52:59;;;;;;;139.15;73.88;;;12.40;99.90;;;;;;5053898;28;20036;-75
2020/12/19 11:55:25;;;;;;;129.93;73.55;;;12.40;99.90;;;;;;5051412;28;20385;-75
2020/12/19 11:57:51;;;;;;;139.65;76.30;;;12.30;99.90;;;;;;5051329;28;20444;-74
2020/12/19 12:00:16;;;;;;;147.25;79.65;;;12.30;99.90;;;;;;5041372;28;20456;-74
2020/12/19 12:02:42;;;;;;;139.95;75.22;;;12.30;99.90;;;;;;5052996;28;20124;-73
2020/12/19 12:05:08;;;;;;;134.93;72.63;;;12.30;99.90;;;;;;5055597;28;20384;-72
2020/12/19 12:07:33;;;;;;;128.23;69.20;;;12.30;99.90;;;;;;5050769;28;20539;-73
2020/12/19 12:09:59;;;;;;;133.30;70.25;;;12.30;99.90;;;;;;5062402;28;20031;-74
2020/12/19 12:12:24;;;;;;;135.57;69.25;;;12.30;99.90;;;;;;5051089;28;20021;-74
2020/12/19 12:14:50;;;;;;;135.55;68.90;;;12.40;99.90;;;;;;5055632;28;20032;-74
2020/12/19 12:17:16;;;;;;;128.77;67.32;;;12.30;99.90;;;;;;5049879;28;20021;-74
2020/12/19 12:19:41;;;;;;;126.70;66.93;;;12.40;99.90;;;;;;5049506;28;20021;-72
2020/12/19 12:22:07;;;;;;;123.13;67.57;;;12.40;99.90;;;;;;5047183;28;20057;-73
2020/12/19 12:24:33;;;;;;;122.65;67.25;;;12.40;99.90;;;;;;5049150;28;20044;-73
2020/12/19 12:26:59;;;;;;;132.48;69.55;;;12.50;99.90;;;;;;5052912;28;20051;-73